Time;durP1;ratioP1;P1;durP2;ratioP2;P2;SDS_P1;SDS_P2;PMS_P1;PMS_P2;Temp;Humidity;BMP_temperature;BMP_pressure;BME280_temperature;BME280_humidity;BME280_pressure;Samples;Min_cycle;Max_cycle;Signal;HPM_P1;HPM_P2
2021/01/09 00:04:23;;;;;;;17.33;13.38;;;;;;;;;;4924644;28;20053;-58
2021/01/09 00:06:50;;;;;;;19.27;12.80;;;;;;;;;;4194165;34;20113;-58
2021/01/09 00:09:15;;;;;;;16.52;11.57;;;;;;;;;;4192287;34;20125;-58
2021/01/09 00:11:41;;;;;;;17.62;12.13;;;;;;;;;;4178889;34;20143;-59
2021/01/09 00:14:07;;;;;;;17.05;12.07;;;;;;;;;;4178441;34;20138;-58
2021/01/09 00:16:33;;;;;;;18.37;12.80;;;;;;;;;;4178463;34;20110;-58
2021/01/09 00:18:59;;;;;;;18.73;13.05;;;;;;;;;;4165810;34;20102;-58
2021/01/09 00:21:33;;;;;;;17.95;12.50;;;;;;;;;;4178442;34;20101;-58
2021/01/09 00:24:01;;;;;;;17.55;12.68;;;;;;;;;;4178491;34;20206;-58
2021/01/09 00:26:29;;;;;;;20.55;13.23;;;;;;;;;;4178609;34;20218;-58
2021/01/09 00:28:55;;;;;;;19.30;12.55;;;;;;;;;;4178446;34;20122;-58
2021/01/09 00:31:21;;;;;;;19.35;13.00;;;;;;;;;;4178571;34;20132;-58
2021/01/09 00:33:47;;;;;;;18.73;13.13;;;;;;;;;;4165825;34;20539;-58
2021/01/09 00:36:13;;;;;;;17.10;12.18;;;;;;;;;;4178505;34;20111;-58
2021/01/09 00:38:39;;;;;;;17.65;12.60;;;;;;;;;;4178619;34;20186;-59
2021/01/09 00:41:05;;;;;;;17.90;12.75;;;;;;;;;;4178429;34;20145;-58
2021/01/09 00:43:31;;;;;;;21.83;13.85;;;;;;;;;;4178679;34;20110;-58
2021/01/09 00:45:57;;;;;;;19.52;12.95;;;;;;;;;;4178489;34;20131;-58
2021/01/09 00:48:22;;;;;;;16.92;12.50;;;;;;;;;;4165641;34;20113;-59
2021/01/09 00:50:48;;;;;;;18.52;13.18;;;;;;;;;;4178219;34;20226;-60
2021/01/09 00:53:14;;;;;;;18.83;13.40;;;;;;;;;;4178329;34;20122;-61
2021/01/09 00:55:40;;;;;;;19.40;13.15;;;;;;;;;;4178397;34;20123;-58
2021/01/09 00:58:06;;;;;;;18.23;12.75;;;;;;;;;;4178253;34;20102;-59
2021/01/09 01:00:32;;;;;;;19.95;13.70;;;;;;;;;;4178224;34;20432;-61
2021/01/09 01:02:58;;;;;;;18.90;13.45;;;;;;;;;;4165966;34;20106;-58
2021/01/09 01:05:24;;;;;;;20.10;13.75;;;;;;;;;;4178056;34;20214;-58
2021/01/09 01:07:50;;;;;;;20.10;13.48;;;;;;;;;;4189386;34;20109;-59
2021/01/09 01:10:16;;;;;;;19.15;13.82;;;;;;;;;;4191760;34;20129;-59
2021/01/09 01:12:42;;;;;;;22.37;13.85;;;;;;;;;;4191998;34;20220;-58
2021/01/09 01:15:08;;;;;;;20.02;13.65;;;;;;;;;;4191756;34;20141;-58
2021/01/09 01:17:34;;;;;;;19.25;14.80;;;;;;;;;;4191498;34;20139;-59
2021/01/09 01:20:00;;;;;;;20.05;14.32;;;;;;;;;;4191579;34;20171;-58
2021/01/09 01:22:26;;;;;;;19.12;13.88;;;;;;;;;;4191788;34;20122;-59
2021/01/09 01:24:52;;;;;;;18.00;13.32;;;;;;;;;;4191656;34;20551;-58
2021/01/09 01:27:18;;;;;;;17.98;13.75;;;;;;;;;;4191801;34;20098;-58
2021/01/09 01:29:43;;;;;;;19.73;14.35;;;;;;;;;;4191633;34;20525;-58
2021/01/09 01:32:09;;;;;;;19.40;14.35;;;;;;;;;;4191739;34;20102;-58
2021/01/09 01:34:35;;;;;;;21.45;14.63;;;;;;;;;;4191678;34;20120;-59
2021/01/09 01:37:01;;;;;;;23.73;16.25;;;;;;;;;;4191673;34;20126;-59
2021/01/09 01:39:27;;;;;;;23.08;14.95;;;;;;;;;;4191629;34;20583;-58
2021/01/09 01:41:56;;;;;;;22.87;16.00;;;;;;;;;;4191706;34;20455;-59
2021/01/09 01:44:22;;;;;;;20.40;14.98;;;;;;;;;;4178811;34;20458;-58
2021/01/09 01:46:48;;;;;;;20.37;14.87;;;;;;;;;;4191570;34;20214;-58
2021/01/09 01:49:14;;;;;;;20.83;14.60;;;;;;;;;;4191526;34;20161;-58
2021/01/09 01:51:41;;;;;;;20.52;14.87;;;;;;;;;;4191571;34;20179;-61
2021/01/09 01:54:07;;;;;;;23.77;15.95;;;;;;;;;;4167714;34;20114;-60
2021/01/09 01:56:33;;;;;;;23.05;16.00;;;;;;;;;;4178637;34;20574;-59
2021/01/09 01:58:58;;;;;;;25.90;17.08;;;;;;;;;;4178736;34;20122;-59
2021/01/09 02:01:25;;;;;;;24.17;17.23;;;;;;;;;;4191446;34;20098;-59
2021/01/09 02:03:51;;;;;;;25.40;16.37;;;;;;;;;;4178890;34;20169;-58
2021/01/09 02:06:21;;;;;;;21.73;16.87;;;;;;;;;;4191634;34;20114;-59
2021/01/09 02:09:03;;;;;;;25.35;16.60;;;;;;;;;;4179035;34;20116;-59
2021/01/09 02:11:38;;;;;;;25.60;17.65;;;;;;;;;;4191638;34;20102;-59
2021/01/09 02:14:06;;;;;;;24.90;17.63;;;;;;;;;;4191427;34;20564;-59
2021/01/09 02:16:32;;;;;;;23.75;16.42;;;;;;;;;;4167600;34;20133;-59
2021/01/09 02:18:58;;;;;;;22.83;16.85;;;;;;;;;;4167477;34;20145;-59
2021/01/09 02:21:38;;;;;;;24.60;16.98;;;;;;;;;;4167264;34;20129;-59
2021/01/09 02:24:13;;;;;;;21.85;16.60;;;;;;;;;;4191288;34;20116;-59
2021/01/09 02:26:39;;;;;;;;;;;;;;;;;;4191617;34;20547;-59
2021/01/09 02:29:05;;;;;;;25.58;18.00;;;;;;;;;;4178528;34;19977;-59
2021/01/09 02:31:33;;;;;;;25.10;17.92;;;;;;;;;;4178485;34;20114;-59
2021/01/09 02:33:59;;;;;;;27.75;17.92;;;;;;;;;;4167426;34;20138;-59
2021/01/09 02:36:25;;;;;;;26.17;18.48;;;;;;;;;;4167012;34;20529;-59
2021/01/09 02:38:50;;;;;;;25.98;17.77;;;;;;;;;;4178316;34;20133;-61
2021/01/09 02:41:16;;;;;;;24.40;18.17;;;;;;;;;;4191124;34;20134;-59
2021/01/09 02:43:42;;;;;;;24.98;17.95;;;;;;;;;;4167108;34;20109;-59
2021/01/09 02:46:08;;;;;;;24.10;17.23;;;;;;;;;;4191450;34;20129;-59
2021/01/09 02:48:34;;;;;;;24.00;17.37;;;;;;;;;;4191104;34;20113;-59
2021/01/09 02:50:59;;;;;;;25.77;18.98;;;;;;;;;;4191195;34;20149;-59
2021/01/09 02:53:25;;;;;;;24.08;17.92;;;;;;;;;;4191064;34;20126;-59
2021/01/09 02:55:51;;;;;;;21.62;16.35;;;;;;;;;;4191143;34;20177;-60
2021/01/09 02:58:17;;;;;;;24.83;18.10;;;;;;;;;;4190881;34;20246;-59
2021/01/09 03:00:43;;;;;;;23.90;17.52;;;;;;;;;;4178130;34;20206;-59
2021/01/09 03:03:09;;;;;;;23.02;17.12;;;;;;;;;;4190873;34;20102;-59
2021/01/09 03:05:34;;;;;;;24.48;17.33;;;;;;;;;;4190700;34;20530;-59
2021/01/09 03:08:00;;;;;;;26.20;18.42;;;;;;;;;;4191113;34;20183;-59
2021/01/09 03:10:26;;;;;;;26.73;19.33;;;;;;;;;;4190899;34;20121;-59
2021/01/09 03:12:52;;;;;;;24.90;18.50;;;;;;;;;;4190858;34;20110;-59
2021/01/09 03:15:18;;;;;;;27.05;18.62;;;;;;;;;;4190981;34;20110;-59
2021/01/09 03:17:44;;;;;;;24.37;18.83;;;;;;;;;;4177964;34;20601;-59
2021/01/09 03:20:10;;;;;;;23.55;18.50;;;;;;;;;;4190788;34;20214;-59
2021/01/09 03:22:36;;;;;;;25.25;19.05;;;;;;;;;;4191050;34;20133;-60
2021/01/09 03:25:02;;;;;;;25.40;18.52;;;;;;;;;;4190802;34;20133;-59
2021/01/09 03:27:28;;;;;;;25.40;18.55;;;;;;;;;;4190781;34;20106;-59
2021/01/09 03:29:54;;;;;;;25.55;18.48;;;;;;;;;;4190612;34;20125;-59
2021/01/09 03:32:20;;;;;;;25.40;19.40;;;;;;;;;;4190718;34;20525;-59
2021/01/09 03:34:45;;;;;;;25.37;19.58;;;;;;;;;;4190780;34;20125;-59
2021/01/09 03:37:11;;;;;;;24.35;18.65;;;;;;;;;;4177807;34;20144;-59
2021/01/09 03:39:37;;;;;;;23.58;18.95;;;;;;;;;;4190415;34;20213;-59
2021/01/09 03:42:03;;;;;;;25.02;18.83;;;;;;;;;;4191672;34;20122;-59
2021/01/09 03:44:29;;;;;;;25.77;18.95;;;;;;;;;;4192533;34;20152;-59
2021/01/09 03:46:55;;;;;;;25.37;18.77;;;;;;;;;;4192572;34;20701;-59
2021/01/09 03:49:21;;;;;;;27.40;19.35;;;;;;;;;;4179949;34;20202;-58
2021/01/09 03:51:46;;;;;;;25.25;18.77;;;;;;;;;;4168543;34;20197;-59
2021/01/09 03:54:12;;;;;;;27.40;19.65;;;;;;;;;;4192730;34;20114;-59
2021/01/09 03:56:38;;;;;;;27.87;19.98;;;;;;;;;;4192413;34;20229;-58
2021/01/09 03:59:04;;;;;;;25.10;19.65;;;;;;;;;;4192503;34;20190;-59
2021/01/09 04:01:30;;;;;;;26.62;19.17;;;;;;;;;;4192660;34;20118;-59
2021/01/09 04:03:55;;;;;;;26.95;19.85;;;;;;;;;;4192368;34;20102;-59
2021/01/09 04:06:21;;;;;;;26.95;19.75;;;;;;;;;;4192273;34;20566;-59
2021/01/09 04:08:47;;;;;;;32.55;20.52;;;;;;;;;;4192308;34;20130;-60
2021/01/09 04:11:13;;;;;;;27.15;19.15;;;;;;;;;;4192385;34;20133;-59
2021/01/09 04:13:39;;;;;;;27.70;20.37;;;;;;;;;;4192429;34;20125;-59
2021/01/09 04:16:05;;;;;;;25.37;20.10;;;;;;;;;;4192306;34;20546;-59
2021/01/09 04:18:31;;;;;;;25.52;18.73;;;;;;;;;;4192318;34;20458;-59
2021/01/09 04:20:57;;;;;;;26.70;20.00;;;;;;;;;;4192186;34;20155;-59
2021/01/09 04:23:23;;;;;;;29.92;21.12;;;;;;;;;;4192307;34;20113;-60
2021/01/09 04:25:49;;;;;;;27.13;19.85;;;;;;;;;;4192563;34;20125;-60
2021/01/09 04:28:15;;;;;;;29.73;20.80;;;;;;;;;;4192518;34;20121;-59
2021/01/09 04:30:40;;;;;;;31.92;21.70;;;;;;;;;;4192435;34;20137;-60
2021/01/09 04:33:06;;;;;;;30.30;21.05;;;;;;;;;;4192222;34;20217;-60
2021/01/09 04:35:32;;;;;;;30.65;21.83;;;;;;;;;;4192021;34;20205;-60
2021/01/09 04:37:58;;;;;;;31.25;22.70;;;;;;;;;;4192366;34;20102;-60
2021/01/09 04:40:24;;;;;;;34.28;23.08;;;;;;;;;;4192422;34;20133;-60
2021/01/09 04:42:49;;;;;;;31.80;22.13;;;;;;;;;;4179342;34;20133;-60
2021/01/09 04:45:15;;;;;;;34.70;24.35;;;;;;;;;;4192353;34;20122;-60
2021/01/09 04:47:41;;;;;;;28.55;21.65;;;;;;;;;;4179363;34;20121;-60
2021/01/09 04:50:08;;;;;;;37.30;22.95;;;;;;;;;;4167778;34;20193;-60
2021/01/09 04:52:34;;;;;;;32.47;22.77;;;;;;;;;;4191511;34;20098;-59
2021/01/09 04:55:00;;;;;;;29.77;21.02;;;;;;;;;;4167763;34;20234;-61
2021/01/09 04:57:32;;;;;;;31.50;22.58;;;;;;;;;;4179353;34;20122;-60
2021/01/09 04:59:58;;;;;;;32.28;21.73;;;;;;;;;;4168093;34;20110;-64
2021/01/09 05:02:24;;;;;;;32.60;22.08;;;;;;;;;;4191927;34;20105;-60
2021/01/09 05:04:50;;;;;;;30.65;22.27;;;;;;;;;;4167293;34;20178;-61
2021/01/09 05:07:15;;;;;;;31.90;22.30;;;;;;;;;;4167785;34;20202;-64
2021/01/09 05:09:43;;;;;;;28.80;22.30;;;;;;;;;;4191770;34;20548;-60
2021/01/09 05:12:09;;;;;;;31.02;22.02;;;;;;;;;;4178926;34;20521;-60
2021/01/09 05:14:35;;;;;;;28.65;21.62;;;;;;;;;;4191683;34;20221;-56
2021/01/09 05:17:01;;;;;;;33.15;23.15;;;;;;;;;;4167671;34;20589;-56
2021/01/09 05:19:29;;;;;;;31.05;21.80;;;;;;;;;;4191626;34;20117;-55
2021/01/09 05:21:56;;;;;;;30.25;21.67;;;;;;;;;;4191784;34;20121;-56
2021/01/09 05:24:22;;;;;;;36.00;22.70;;;;;;;;;;4178998;34;20594;-55
2021/01/09 05:26:48;;;;;;;33.25;23.77;;;;;;;;;;4167567;34;20105;-55
2021/01/09 05:29:14;;;;;;;32.88;22.77;;;;;;;;;;4178919;34;20102;-57
2021/01/09 05:31:40;;;;;;;31.30;23.00;;;;;;;;;;4179157;34;20117;-57
2021/01/09 05:34:06;;;;;;;30.83;22.62;;;;;;;;;;4191663;34;20590;-57
2021/01/09 05:36:32;;;;;;;31.73;21.50;;;;;;;;;;4191501;34;20458;-57
2021/01/09 05:38:58;;;;;;;30.20;22.48;;;;;;;;;;4191683;34;20172;-56
2021/01/09 05:41:24;;;;;;;28.08;21.70;;;;;;;;;;4191572;34;20517;-57
2021/01/09 05:44:06;;;;;;;31.90;22.17;;;;;;;;;;4191794;34;20094;-49
2021/01/09 05:46:34;;;;;;;29.37;22.35;;;;;;;;;;4191567;34;20469;-53
2021/01/09 05:48:59;;;;;;;27.52;21.75;;;;;;;;;;4191588;34;20091;-55
2021/01/09 05:51:28;;;;;;;29.98;21.80;;;;;;;;;;4191456;34;20249;-56
2021/01/09 05:53:54;;;;;;;29.08;21.30;;;;;;;;;;4178675;34;20110;-58
2021/01/09 05:56:23;;;;;;;26.87;19.17;;;;;;;;;;4191351;34;20125;-58
2021/01/09 05:58:49;;;;;;;26.95;20.95;;;;;;;;;;4191389;34;20134;-58
2021/01/09 06:01:19;;;;;;;30.58;21.85;;;;;;;;;;4191381;34;20411;-52
2021/01/09 06:03:48;;;;;;;26.83;20.70;;;;;;;;;;4178800;34;20157;-53
2021/01/09 06:06:33;;;;;;;26.77;21.33;;;;;;;;;;4167455;34;20218;-53
2021/01/09 06:09:09;;;;;;;30.77;22.25;;;;;;;;;;4178817;34;20110;-54
2021/01/09 06:11:40;;;;;;;33.10;22.60;;;;;;;;;;4191372;34;20122;-56
2021/01/09 06:14:07;;;;;;;33.65;22.70;;;;;;;;;;4191485;34;20205;-55
2021/01/09 06:16:35;;;;;;;30.55;22.67;;;;;;;;;;4178473;34;20104;-55
2021/01/09 06:19:01;;;;;;;32.53;23.48;;;;;;;;;;4178623;34;20110;-56
2021/01/09 06:21:27;;;;;;;31.95;23.75;;;;;;;;;;4191221;34;20283;-57
2021/01/09 06:23:54;;;;;;;32.10;24.02;;;;;;;;;;4191476;34;20431;-57
2021/01/09 06:26:21;;;;;;;35.30;25.75;;;;;;;;;;4191045;34;20118;-58
2021/01/09 06:28:50;;;;;;;38.58;28.08;;;;;;;;;;4191325;34;20274;-57
2021/01/09 06:31:20;;;;;;;39.80;28.92;;;;;;;;;;4178909;34;20498;-58
2021/01/09 06:33:48;;;;;;;40.30;28.62;;;;;;;;;;4191249;34;20193;-58
2021/01/09 06:36:14;;;;;;;34.47;25.70;;;;;;;;;;4191111;34;20102;-58
2021/01/09 06:38:41;;;;;;;37.00;26.50;;;;;;;;;;4191166;34;20221;-58
2021/01/09 06:41:09;;;;;;;37.72;27.80;;;;;;;;;;4191042;34;20124;-58
2021/01/09 06:43:35;;;;;;;35.92;26.92;;;;;;;;;;4167426;34;20117;-59
2021/01/09 06:46:01;;;;;;;36.63;28.02;;;;;;;;;;4178566;34;20503;-58
2021/01/09 06:48:27;;;;;;;39.53;29.33;;;;;;;;;;4178300;34;20129;-58
2021/01/09 06:50:52;;;;;;;41.97;28.30;;;;;;;;;;4178220;34;20136;-58
2021/01/09 06:53:18;;;;;;;39.15;27.23;;;;;;;;;;4178550;34;20128;-58
2021/01/09 06:55:44;;;;;;;37.63;27.85;;;;;;;;;;4190873;34;20220;-57
2021/01/09 06:58:10;;;;;;;37.70;27.87;;;;;;;;;;4190354;34;20514;-58
2021/01/09 07:00:36;;;;;;;41.95;30.45;;;;;;;;;;4178114;34;20120;-55
2021/01/09 07:03:15;;;;;;;39.97;29.27;;;;;;;;;;4190738;34;20197;-58
2021/01/09 07:05:50;;;;;;;38.92;28.15;;;;;;;;;;4190564;34;20121;-58
2021/01/09 07:08:19;;;;;;;39.33;27.85;;;;;;;;;;4191170;34;20690;-58
2021/01/09 07:10:50;;;;;;;35.40;26.90;;;;;;;;;;4190782;34;20503;-58
2021/01/09 07:13:16;;;;;;;37.42;26.95;;;;;;;;;;4190858;34;20118;-58
2021/01/09 07:15:42;;;;;;;41.08;30.30;;;;;;;;;;4177375;34;20213;-57
2021/01/09 07:18:08;;;;;;;38.67;29.48;;;;;;;;;;4191103;34;20222;-57
2021/01/09 07:20:39;;;;;;;40.08;28.92;;;;;;;;;;4190742;34;20118;-59
2021/01/09 07:23:08;;;;;;;39.58;30.45;;;;;;;;;;4190807;34;20213;-58
2021/01/09 07:25:39;;;;;;;33.70;26.42;;;;;;;;;;4191003;34;20126;-57
2021/01/09 07:28:10;;;;;;;33.83;25.98;;;;;;;;;;4190937;34;20134;-58
2021/01/09 07:30:37;;;;;;;29.25;24.00;;;;;;;;;;4190743;34;20099;-56
2021/01/09 07:33:04;;;;;;;34.45;26.75;;;;;;;;;;4190615;34;20216;-58
2021/01/09 07:35:31;;;;;;;33.65;26.87;;;;;;;;;;4190558;34;20110;-55
2021/01/09 07:38:04;;;;;;;36.97;27.02;;;;;;;;;;4190737;34;20095;-55
2021/01/09 07:40:50;;;;;;;38.50;32.45;;;;;;;;;;4190465;34;20600;-55
2021/01/09 07:43:46;;;;;;;34.85;28.12;;;;;;;;;;4190839;34;20106;-58
2021/01/09 07:46:22;;;;;;;36.35;29.83;;;;;;;;;;4190431;34;20197;-57
2021/01/09 07:48:48;;;;;;;36.28;26.55;;;;;;;;;;4188984;34;20133;-58
2021/01/09 07:51:14;;;;;;;31.62;24.73;;;;;;;;;;4184962;34;20122;-58
2021/01/09 07:53:47;;;;;;;30.65;24.23;;;;;;;;;;4182273;34;20102;-58
2021/01/09 07:56:38;;;;;;;33.70;25.60;;;;;;;;;;4190371;34;20553;-59
2021/01/09 07:59:06;;;;;;;32.30;24.33;;;;;;;;;;4178534;34;20121;-59
2021/01/09 08:01:41;;;;;;;31.92;24.27;;;;;;;;;;4176515;34;20594;-58
2021/01/09 08:04:07;;;;;;;34.03;26.83;;;;;;;;;;4176533;34;20126;-56
2021/01/09 08:06:36;;;;;;;34.42;25.73;;;;;;;;;;4163680;34;20118;-55
2021/01/09 08:09:02;;;;;;;32.05;25.20;;;;;;;;;;4176650;34;20122;-55
2021/01/09 08:11:28;;;;;;;35.45;26.70;;;;;;;;;;4176480;34;20241;-59
2021/01/09 08:14:01;;;;;;;36.67;27.55;;;;;;;;;;4152532;34;20126;-58
2021/01/09 08:16:28;;;;;;;35.78;26.90;;;;;;;;;;4176407;34;20114;-58
2021/01/09 08:18:53;;;;;;;34.10;26.60;;;;;;;;;;4176336;34;20099;-58
2021/01/09 08:21:22;;;;;;;35.20;26.85;;;;;;;;;;4176577;34;20105;-59
2021/01/09 08:23:54;;;;;;;31.92;24.37;;;;;;;;;;4176301;34;20106;-59
2021/01/09 08:26:21;;;;;;;35.15;26.45;;;;;;;;;;4176343;34;20226;-60
2021/01/09 08:28:48;;;;;;;38.53;29.52;;;;;;;;;;4178204;34;20471;-58
2021/01/09 08:31:14;;;;;;;33.00;26.00;;;;;;;;;;4165795;34;20101;-58
2021/01/09 08:33:40;;;;;;;32.88;26.40;;;;;;;;;;4165867;34;20178;-59
2021/01/09 08:36:06;;;;;;;33.35;24.83;;;;;;;;;;4165667;34;20129;-62
2021/01/09 08:38:32;;;;;;;28.83;24.23;;;;;;;;;;4154734;34;20118;-57
2021/01/09 08:40:58;;;;;;;32.75;24.65;;;;;;;;;;4165787;34;20201;-59
2021/01/09 08:43:24;;;;;;;34.10;25.80;;;;;;;;;;4178396;34;20114;-57
2021/01/09 08:45:54;;;;;;;29.77;23.70;;;;;;;;;;4178260;34;20129;-57
2021/01/09 08:48:24;;;;;;;29.73;24.30;;;;;;;;;;4178385;34;20115;-58
2021/01/09 08:51:06;;;;;;;28.10;22.48;;;;;;;;;;4184854;34;20564;-57
2021/01/09 08:53:48;;;;;;;29.10;22.58;;;;;;;;;;4192162;34;20646;-59
2021/01/09 08:56:14;;;;;;;29.87;22.33;;;;;;;;;;4180477;34;20213;-59
2021/01/09 08:58:40;;;;;;;31.10;24.27;;;;;;;;;;4168143;34;20572;-58
2021/01/09 09:01:08;;;;;;;32.85;23.90;;;;;;;;;;4179134;34;20495;-57
2021/01/09 09:03:35;;;;;;;30.70;24.27;;;;;;;;;;4179435;34;20129;-59
2021/01/09 09:06:05;;;;;;;31.48;24.48;;;;;;;;;;4178973;34;20137;-60
2021/01/09 09:08:31;;;;;;;33.50;26.05;;;;;;;;;;4179210;34;20122;-59
2021/01/09 09:10:57;;;;;;;31.48;24.85;;;;;;;;;;4179271;34;20193;-58
2021/01/09 09:13:24;;;;;;;32.42;24.50;;;;;;;;;;4179353;34;20499;-58
2021/01/09 09:15:51;;;;;;;27.95;22.83;;;;;;;;;;4191873;34;20133;-59
2021/01/09 09:18:18;;;;;;;30.50;23.58;;;;;;;;;;4191775;34;20114;-59
2021/01/09 09:20:45;;;;;;;31.45;24.83;;;;;;;;;;4179318;34;20172;-59
2021/01/09 09:23:15;;;;;;;26.80;22.10;;;;;;;;;;4191942;34;20117;-58
2021/01/09 09:25:41;;;;;;;29.25;23.17;;;;;;;;;;4179013;34;20201;-58
2021/01/09 09:28:07;;;;;;;27.55;22.50;;;;;;;;;;4191672;34;20133;-58
2021/01/09 09:30:33;;;;;;;29.73;23.95;;;;;;;;;;4178475;34;20129;-58
2021/01/09 09:33:10;;;;;;;31.02;25.15;;;;;;;;;;4191597;34;20291;-59
2021/01/09 09:35:36;;;;;;;32.58;25.73;;;;;;;;;;4191585;34;20110;-58
2021/01/09 09:38:03;;;;;;;35.15;27.65;;;;;;;;;;4191850;34;20126;-58
2021/01/09 09:40:33;;;;;;;33.75;27.10;;;;;;;;;;4191070;34;20109;-58
2021/01/09 09:43:20;;;;;;;35.38;28.62;;;;;;;;;;4191529;34;20507;-59
2021/01/09 09:46:08;;;;;;;36.22;27.70;;;;;;;;;;4184811;34;20416;-59
2021/01/09 09:48:49;;;;;;;37.55;28.17;;;;;;;;;;4179376;34;20110;-58
2021/01/09 09:51:15;;;;;;;36.92;28.90;;;;;;;;;;4189998;34;20114;-58
2021/01/09 09:53:49;;;;;;;35.15;28.42;;;;;;;;;;4177804;34;20145;-58
2021/01/09 09:56:21;;;;;;;39.13;30.75;;;;;;;;;;4166071;34;20230;-57
2021/01/09 09:58:48;;;;;;;36.75;29.35;;;;;;;;;;4177614;34;20210;-57
2021/01/09 10:01:14;;;;;;;33.90;26.77;;;;;;;;;;4177634;34;20094;-58
2021/01/09 10:03:40;;;;;;;35.92;25.90;;;;;;;;;;4177697;34;20122;-57
2021/01/09 10:06:06;;;;;;;33.58;26.48;;;;;;;;;;4177418;34;20130;-59
2021/01/09 10:08:32;;;;;;;33.63;27.08;;;;;;;;;;4177711;34;20094;-57
2021/01/09 10:10:58;;;;;;;34.97;27.70;;;;;;;;;;4177588;34;20451;-58
2021/01/09 10:13:27;;;;;;;35.83;27.65;;;;;;;;;;4177586;34;20217;-60
2021/01/09 10:15:56;;;;;;;36.22;26.40;;;;;;;;;;4177637;34;20099;-57
2021/01/09 10:18:23;;;;;;;34.28;27.90;;;;;;;;;;4177470;34;20271;-58
2021/01/09 10:20:49;;;;;;;33.35;27.87;;;;;;;;;;4177596;34;20616;-58
2021/01/09 10:23:15;;;;;;;31.77;27.48;;;;;;;;;;4190822;34;20102;-58
2021/01/09 10:25:41;;;;;;;30.33;25.58;;;;;;;;;;4191160;34;20138;-59
2021/01/09 10:28:07;;;;;;;33.95;26.33;;;;;;;;;;4191435;34;20130;-59
2021/01/09 10:30:33;;;;;;;33.85;25.65;;;;;;;;;;4191053;34;20669;-59
2021/01/09 10:32:59;;;;;;;33.17;25.88;;;;;;;;;;4191448;34;20136;-59
2021/01/09 10:35:25;;;;;;;35.05;28.12;;;;;;;;;;4191145;34;20554;-55
2021/01/09 10:37:50;;;;;;;34.17;27.55;;;;;;;;;;4190957;34;20110;-57
2021/01/09 10:40:17;;;;;;;38.10;29.65;;;;;;;;;;4190936;34;20200;-56
2021/01/09 10:42:43;;;;;;;35.75;28.33;;;;;;;;;;4191269;34;20090;-58
2021/01/09 10:45:11;;;;;;;38.17;29.98;;;;;;;;;;4191324;34;20203;-60
2021/01/09 10:47:38;;;;;;;37.53;28.38;;;;;;;;;;4191266;34;20201;-60
2021/01/09 10:50:04;;;;;;;31.92;25.30;;;;;;;;;;4190736;34;20213;-60
2021/01/09 10:52:30;;;;;;;26.30;21.58;;;;;;;;;;4190645;34;20118;-60
2021/01/09 10:54:56;;;;;;;24.25;21.23;;;;;;;;;;4190966;34;20213;-59
2021/01/09 10:57:22;;;;;;;24.55;20.60;;;;;;;;;;4191243;34;20094;-60
2021/01/09 10:59:47;;;;;;;25.27;21.33;;;;;;;;;;4190764;34;20113;-61
2021/01/09 11:02:13;;;;;;;24.95;20.42;;;;;;;;;;4190939;34;20106;-60
2021/01/09 11:04:39;;;;;;;25.58;20.35;;;;;;;;;;4190867;34;20193;-61
2021/01/09 11:07:05;;;;;;;25.00;22.13;;;;;;;;;;4190827;34;20128;-61
2021/01/09 11:09:31;;;;;;;30.00;23.67;;;;;;;;;;4190951;34;20160;-59
2021/01/09 11:11:57;;;;;;;28.60;23.23;;;;;;;;;;4191050;34;20204;-59
2021/01/09 11:14:22;;;;;;;35.13;26.50;;;;;;;;;;4190695;34;20138;-59
2021/01/09 11:17:01;;;;;;;33.83;26.83;;;;;;;;;;4190996;34;20189;-60
2021/01/09 11:19:30;;;;;;;33.63;26.95;;;;;;;;;;4178571;34;20098;-57
2021/01/09 11:22:02;;;;;;;31.50;25.98;;;;;;;;;;4191153;34;20557;-59
2021/01/09 11:24:32;;;;;;;32.25;25.67;;;;;;;;;;4190691;34;20206;-58
2021/01/09 11:27:02;;;;;;;36.60;28.27;;;;;;;;;;4190805;34;20197;-57
2021/01/09 11:29:28;;;;;;;35.05;28.27;;;;;;;;;;4190491;34;20470;-57
2021/01/09 11:32:01;;;;;;;35.38;28.75;;;;;;;;;;4190706;34;20099;-58
2021/01/09 11:34:27;;;;;;;35.60;28.38;;;;;;;;;;4190583;34;20503;-58
2021/01/09 11:36:56;;;;;;;36.65;28.00;;;;;;;;;;4190609;34;20117;-59
2021/01/09 11:39:22;;;;;;;36.25;29.58;;;;;;;;;;4190383;34;20114;-58
2021/01/09 11:41:48;;;;;;;37.15;28.48;;;;;;;;;;4190601;34;20209;-58
2021/01/09 11:44:16;;;;;;;33.80;29.08;;;;;;;;;;4190397;34;20233;-59
2021/01/09 11:46:43;;;;;;;35.72;27.55;;;;;;;;;;4190715;34;20101;-57
2021/01/09 11:49:09;;;;;;;33.35;26.02;;;;;;;;;;4190244;34;20125;-60
2021/01/09 11:51:35;;;;;;;33.10;27.02;;;;;;;;;;4190614;34;20192;-58
2021/01/09 11:54:01;;;;;;;34.35;27.35;;;;;;;;;;4190568;34;20117;-59
2021/01/09 11:56:27;;;;;;;32.17;26.20;;;;;;;;;;4190327;34;20212;-58
2021/01/09 11:58:53;;;;;;;32.38;25.92;;;;;;;;;;4190133;34;20179;-59
2021/01/09 12:01:18;;;;;;;31.35;26.08;;;;;;;;;;4190231;34;20133;-58
2021/01/09 12:03:44;;;;;;;33.92;28.50;;;;;;;;;;4192138;34;20503;-57
2021/01/09 12:06:16;;;;;;;36.72;29.12;;;;;;;;;;4192108;34;20179;-58
2021/01/09 12:08:41;;;;;;;36.47;29.35;;;;;;;;;;4192617;34;20535;-59
2021/01/09 12:11:07;;;;;;;35.28;27.90;;;;;;;;;;4192097;34;20201;-57
2021/01/09 12:13:33;;;;;;;36.83;28.52;;;;;;;;;;4179574;34;20114;-58
2021/01/09 12:15:59;;;;;;;36.20;28.40;;;;;;;;;;4192451;34;20137;-58
2021/01/09 12:18:25;;;;;;;34.05;26.75;;;;;;;;;;4192547;34;20114;-56
2021/01/09 12:20:51;;;;;;;32.53;25.27;;;;;;;;;;4192388;34;20114;-56
2021/01/09 12:23:17;;;;;;;37.38;29.87;;;;;;;;;;4192217;34;20114;-56
2021/01/09 12:25:43;;;;;;;41.30;30.95;;;;;;;;;;4192314;34;20113;-58
2021/01/09 12:28:09;;;;;;;41.55;32.28;;;;;;;;;;4192296;34;20466;-56
2021/01/09 12:30:35;;;;;;;40.55;29.92;;;;;;;;;;4192378;34;20134;-58
2021/01/09 12:33:02;;;;;;;36.88;28.00;;;;;;;;;;4192431;34;20137;-55
2021/01/09 12:35:28;;;;;;;34.28;26.95;;;;;;;;;;4192143;34;20118;-57
2021/01/09 12:37:54;;;;;;;32.58;25.58;;;;;;;;;;4192063;34;20196;-57
2021/01/09 12:40:21;;;;;;;34.45;27.15;;;;;;;;;;4191976;34;20233;-55
2021/01/09 12:42:48;;;;;;;35.05;26.65;;;;;;;;;;4192373;34;20130;-57
2021/01/09 12:45:14;;;;;;;40.83;29.15;;;;;;;;;;4192030;34;20153;-56
2021/01/09 12:47:40;;;;;;;39.30;28.27;;;;;;;;;;4191813;34;20109;-58
2021/01/09 12:50:07;;;;;;;40.88;28.95;;;;;;;;;;4191088;34;20568;-59
2021/01/09 12:52:33;;;;;;;38.17;27.55;;;;;;;;;;4179302;34;20108;-58
2021/01/09 12:54:58;;;;;;;35.80;28.40;;;;;;;;;;4191902;34;20260;-59
2021/01/09 12:57:24;;;;;;;36.33;28.75;;;;;;;;;;4192145;34;20551;-61
2021/01/09 12:59:50;;;;;;;42.60;32.53;;;;;;;;;;4191797;34;20126;-58
2021/01/09 13:02:16;;;;;;;37.33;29.48;;;;;;;;;;4190522;34;20198;-59
2021/01/09 13:04:42;;;;;;;32.67;27.30;;;;;;;;;;4185840;34;20202;-58
2021/01/09 13:07:08;;;;;;;35.28;27.70;;;;;;;;;;4178044;34;20099;-58
2021/01/09 13:09:34;;;;;;;33.58;25.92;;;;;;;;;;4165453;34;20222;-60
2021/01/09 13:12:00;;;;;;;35.33;28.02;;;;;;;;;;4178122;34;20130;-52
2021/01/09 13:14:26;;;;;;;40.17;29.75;;;;;;;;;;4177341;34;20607;-51
2021/01/09 13:16:53;;;;;;;34.97;26.67;;;;;;;;;;4178370;34;20116;-53
2021/01/09 13:19:20;;;;;;;39.55;29.75;;;;;;;;;;4179104;34;20459;-52
2021/01/09 13:21:53;;;;;;;33.95;26.30;;;;;;;;;;4191906;34;20126;-56
2021/01/09 13:24:20;;;;;;;39.72;29.20;;;;;;;;;;4191950;34;20093;-54
2021/01/09 13:26:46;;;;;;;39.90;31.58;;;;;;;;;;4191937;34;20194;-51
2021/01/09 13:29:12;;;;;;;40.85;32.33;;;;;;;;;;4191794;34;20130;-56
2021/01/09 13:31:41;;;;;;;49.25;35.83;;;;;;;;;;4191706;34;20102;-57
2021/01/09 13:34:07;;;;;;;42.42;32.47;;;;;;;;;;4191705;34;20149;-58
2021/01/09 13:36:34;;;;;;;38.58;29.87;;;;;;;;;;4189881;34;20106;-57
2021/01/09 13:39:00;;;;;;;37.58;30.02;;;;;;;;;;4177836;34;20102;-60
2021/01/09 13:41:26;;;;;;;37.10;29.10;;;;;;;;;;4177904;34;20201;-59
2021/01/09 13:43:52;;;;;;;36.92;27.98;;;;;;;;;;4165357;34;20110;-58
2021/01/09 13:46:19;;;;;;;37.75;28.55;;;;;;;;;;4177744;34;20210;-59
2021/01/09 13:48:45;;;;;;;35.42;26.08;;;;;;;;;;4177928;34;20734;-59
2021/01/09 13:51:11;;;;;;;35.00;26.73;;;;;;;;;;4177752;34;20130;-61
2021/01/09 13:53:38;;;;;;;37.67;27.73;;;;;;;;;;4177944;34;20118;-62
2021/01/09 13:56:04;;;;;;;36.75;28.75;;;;;;;;;;4177908;34;20103;-61
2021/01/09 13:58:31;;;;;;;39.85;28.95;;;;;;;;;;4177548;34;20203;-58
2021/01/09 14:00:56;;;;;;;35.10;27.55;;;;;;;;;;4177734;34;20117;-49
2021/01/09 14:03:22;;;;;;;36.58;26.87;;;;;;;;;;4182076;34;20101;-58
2021/01/09 14:05:48;;;;;;;42.13;32.00;;;;;;;;;;4178301;34;20117;-57
2021/01/09 14:08:14;;;;;;;38.28;29.33;;;;;;;;;;4191413;34;20099;-58
2021/01/09 14:10:40;;;;;;;41.40;30.65;;;;;;;;;;4178438;34;20225;-58
2021/01/09 14:13:06;;;;;;;37.90;27.20;;;;;;;;;;4191390;34;20657;-60
2021/01/09 14:15:32;;;;;;;37.17;28.67;;;;;;;;;;4191531;34;20121;-60
2021/01/09 14:17:58;;;;;;;37.42;28.62;;;;;;;;;;4191227;34;20545;-58
2021/01/09 14:20:24;;;;;;;37.65;27.70;;;;;;;;;;4191131;34;20153;-60
2021/01/09 14:22:50;;;;;;;37.33;26.77;;;;;;;;;;4191307;34;20129;-59